sensor_id;sensor_type;location;lat;lon;timestamp;temperature;humidity
57552;DHT22;43379;48.160;14.036;2023-05-27T00:02:06;19.00;87.80
57552;DHT22;43379;48.160;14.036;2023-05-27T00:04:32;19.00;88.10
57552;DHT22;43379;48.160;14.036;2023-05-27T00:06:58;19.00;87.20
57552;DHT22;43379;48.160;14.036;2023-05-27T00:09:23;19.00;87.30
57552;DHT22;43379;48.160;14.036;2023-05-27T00:11:49;19.00;88.40
57552;DHT22;43379;48.160;14.036;2023-05-27T00:14:15;19.00;88.20
57552;DHT22;43379;48.160;14.036;2023-05-27T00:16:43;19.00;88.50
57552;DHT22;43379;48.160;14.036;2023-05-27T00:19:08;19.00;88.80
57552;DHT22;43379;48.160;14.036;2023-05-27T00:21:34;19.00;89.00
57552;DHT22;43379;48.160;14.036;2023-05-27T00:24:00;19.10;88.60
57552;DHT22;43379;48.160;14.036;2023-05-27T00:26:26;19.10;88.20
57552;DHT22;43379;48.160;14.036;2023-05-27T00:28:51;19.00;87.30
57552;DHT22;43379;48.160;14.036;2023-05-27T00:31:17;19.00;87.50
57552;DHT22;43379;48.160;14.036;2023-05-27T00:33:42;19.00;87.30
57552;DHT22;43379;48.160;14.036;2023-05-27T00:36:09;19.00;87.00
57552;DHT22;43379;48.160;14.036;2023-05-27T00:38:35;19.00;87.60
57552;DHT22;43379;48.160;14.036;2023-05-27T00:41:03;18.90;87.40
57552;DHT22;43379;48.160;14.036;2023-05-27T00:43:29;18.90;87.40
57552;DHT22;43379;48.160;14.036;2023-05-27T00:45:58;18.90;87.50
57552;DHT22;43379;48.160;14.036;2023-05-27T00:48:24;18.90;87.50
57552;DHT22;43379;48.160;14.036;2023-05-27T00:50:50;18.80;87.20
57552;DHT22;43379;48.160;14.036;2023-05-27T00:53:16;18.70;88.00
57552;DHT22;43379;48.160;14.036;2023-05-27T00:55:43;18.70;88.00
57552;DHT22;43379;48.160;14.036;2023-05-27T00:58:09;18.70;87.90
57552;DHT22;43379;48.160;14.036;2023-05-27T01:00:35;18.70;89.00
57552;DHT22;43379;48.160;14.036;2023-05-27T01:03:07;18.70;89.20
57552;DHT22;43379;48.160;14.036;2023-05-27T01:05:33;18.70;89.30
57552;DHT22;43379;48.160;14.036;2023-05-27T01:08:31;18.60;89.70
57552;DHT22;43379;48.160;14.036;2023-05-27T01:10:59;18.60;89.60
57552;DHT22;43379;48.160;14.036;2023-05-27T01:13:46;18.60;89.80
57552;DHT22;43379;48.160;14.036;2023-05-27T01:16:16;18.60;90.20
57552;DHT22;43379;48.160;14.036;2023-05-27T01:18:44;18.50;90.10
57552;DHT22;43379;48.160;14.036;2023-05-27T01:21:12;18.50;90.30
57552;DHT22;43379;48.160;14.036;2023-05-27T01:23:38;18.50;90.50
57552;DHT22;43379;48.160;14.036;2023-05-27T01:26:06;18.40;90.70
57552;DHT22;43379;48.160;14.036;2023-05-27T01:28:32;18.40;91.00
57552;DHT22;43379;48.160;14.036;2023-05-27T01:31:37;18.30;90.70
57552;DHT22;43379;48.160;14.036;2023-05-27T01:34:03;18.30;90.80
57552;DHT22;43379;48.160;14.036;2023-05-27T01:36:38;18.30;91.10
57552;DHT22;43379;48.160;14.036;2023-05-27T01:39:08;18.20;91.10
57552;DHT22;43379;48.160;14.036;2023-05-27T01:41:36;18.10;91.10
57552;DHT22;43379;48.160;14.036;2023-05-27T01:44:03;18.10;91.10
57552;DHT22;43379;48.160;14.036;2023-05-27T01:46:29;18.00;91.50
57552;DHT22;43379;48.160;14.036;2023-05-27T01:48:55;18.00;91.40
57552;DHT22;43379;48.160;14.036;2023-05-27T01:51:21;18.00;91.30
57552;DHT22;43379;48.160;14.036;2023-05-27T01:53:46;17.90;91.40
57552;DHT22;43379;48.160;14.036;2023-05-27T01:56:12;17.90;91.50
57552;DHT22;43379;48.160;14.036;2023-05-27T01:58:38;17.90;91.40
57552;DHT22;43379;48.160;14.036;2023-05-27T02:01:03;17.80;91.50
57552;DHT22;43379;48.160;14.036;2023-05-27T02:03:29;17.80;91.70
57552;DHT22;43379;48.160;14.036;2023-05-27T02:05:54;17.80;92.10
57552;DHT22;43379;48.160;14.036;2023-05-27T02:08:20;17.70;92.30
57552;DHT22;43379;48.160;14.036;2023-05-27T02:10:46;17.60;92.60
57552;DHT22;43379;48.160;14.036;2023-05-27T02:13:11;17.60;92.40
57552;DHT22;43379;48.160;14.036;2023-05-27T02:15:37;17.50;92.30
57552;DHT22;43379;48.160;14.036;2023-05-27T02:18:03;17.50;92.30
57552;DHT22;43379;48.160;14.036;2023-05-27T02:20:30;17.40;92.50
57552;DHT22;43379;48.160;14.036;2023-05-27T02:22:56;17.40;92.90
57552;DHT22;43379;48.160;14.036;2023-05-27T02:25:21;17.40;93.00
57552;DHT22;43379;48.160;14.036;2023-05-27T02:27:47;17.40;93.30
57552;DHT22;43379;48.160;14.036;2023-05-27T02:30:14;17.30;93.20
57552;DHT22;43379;48.160;14.036;2023-05-27T02:32:40;17.20;93.30
57552;DHT22;43379;48.160;14.036;2023-05-27T02:35:06;17.20;93.60
57552;DHT22;43379;48.160;14.036;2023-05-27T02:37:33;17.20;93.60
57552;DHT22;43379;48.160;14.036;2023-05-27T02:39:59;17.10;93.80
57552;DHT22;43379;48.160;14.036;2023-05-27T02:42:24;17.10;94.00
57552;DHT22;43379;48.160;14.036;2023-05-27T02:44:50;17.00;94.20
57552;DHT22;43379;48.160;14.036;2023-05-27T02:47:16;16.90;94.30
57552;DHT22;43379;48.160;14.036;2023-05-27T02:49:41;16.80;94.40
57552;DHT22;43379;48.160;14.036;2023-05-27T02:52:07;16.80;94.50
57552;DHT22;43379;48.160;14.036;2023-05-27T02:54:33;16.70;94.60
57552;DHT22;43379;48.160;14.036;2023-05-27T02:56:58;16.80;94.80
57552;DHT22;43379;48.160;14.036;2023-05-27T02:59:25;16.80;94.70
57552;DHT22;43379;48.160;14.036;2023-05-27T03:01:50;16.80;94.50
57552;DHT22;43379;48.160;14.036;2023-05-27T03:04:16;16.80;94.60
57552;DHT22;43379;48.160;14.036;2023-05-27T03:06:42;16.70;94.40
57552;DHT22;43379;48.160;14.036;2023-05-27T03:09:07;16.70;94.30
57552;DHT22;43379;48.160;14.036;2023-05-27T03:11:33;16.70;94.10
57552;DHT22;43379;48.160;14.036;2023-05-27T03:13:59;16.70;94.00
57552;DHT22;43379;48.160;14.036;2023-05-27T03:16:25;16.70;93.80
57552;DHT22;43379;48.160;14.036;2023-05-27T03:18:51;16.60;93.90
57552;DHT22;43379;48.160;14.036;2023-05-27T03:21:16;16.60;93.90
57552;DHT22;43379;48.160;14.036;2023-05-27T03:23:42;16.60;93.70
57552;DHT22;43379;48.160;14.036;2023-05-27T03:26:08;16.60;93.90
57552;DHT22;43379;48.160;14.036;2023-05-27T03:28:34;16.60;93.60
57552;DHT22;43379;48.160;14.036;2023-05-27T03:30:59;16.60;93.60
57552;DHT22;43379;48.160;14.036;2023-05-27T03:33:25;16.60;93.20
57552;DHT22;43379;48.160;14.036;2023-05-27T03:35:51;16.50;93.20
57552;DHT22;43379;48.160;14.036;2023-05-27T03:38:17;16.50;93.20
57552;DHT22;43379;48.160;14.036;2023-05-27T03:40:42;16.50;93.40
57552;DHT22;43379;48.160;14.036;2023-05-27T03:43:08;16.60;93.30
57552;DHT22;43379;48.160;14.036;2023-05-27T03:45:34;16.60;93.40
57552;DHT22;43379;48.160;14.036;2023-05-27T03:47:59;16.60;93.60
57552;DHT22;43379;48.160;14.036;2023-05-27T03:50:25;16.60;93.70
57552;DHT22;43379;48.160;14.036;2023-05-27T03:52:51;16.60;93.90
57552;DHT22;43379;48.160;14.036;2023-05-27T03:55:16;16.60;94.00
57552;DHT22;43379;48.160;14.036;2023-05-27T03:57:42;16.60;93.80
57552;DHT22;43379;48.160;14.036;2023-05-27T04:00:09;16.60;94.10
57552;DHT22;43379;48.160;14.036;2023-05-27T04:02:37;16.60;93.80
57552;DHT22;43379;48.160;14.036;2023-05-27T04:05:03;16.60;93.90
57552;DHT22;43379;48.160;14.036;2023-05-27T04:07:29;16.70;94.10
57552;DHT22;43379;48.160;14.036;2023-05-27T04:09:55;16.70;94.30
57552;DHT22;43379;48.160;14.036;2023-05-27T04:12:20;16.70;94.20
57552;DHT22;43379;48.160;14.036;2023-05-27T04:14:46;16.70;94.20
57552;DHT22;43379;48.160;14.036;2023-05-27T04:17:12;16.70;94.20
57552;DHT22;43379;48.160;14.036;2023-05-27T04:19:39;16.70;94.10
57552;DHT22;43379;48.160;14.036;2023-05-27T04:22:04;16.70;94.20
57552;DHT22;43379;48.160;14.036;2023-05-27T04:24:30;16.80;94.20
57552;DHT22;43379;48.160;14.036;2023-05-27T04:26:56;16.80;94.10
57552;DHT22;43379;48.160;14.036;2023-05-27T04:29:21;16.80;94.10
57552;DHT22;43379;48.160;14.036;2023-05-27T04:31:50;16.90;94.30
57552;DHT22;43379;48.160;14.036;2023-05-27T04:34:16;16.90;94.10
57552;DHT22;43379;48.160;14.036;2023-05-27T04:36:42;16.90;93.70
57552;DHT22;43379;48.160;14.036;2023-05-27T04:39:09;16.90;93.70
57552;DHT22;43379;48.160;14.036;2023-05-27T04:41:36;17.00;93.80
57552;DHT22;43379;48.160;14.036;2023-05-27T04:44:05;17.00;93.70
57552;DHT22;43379;48.160;14.036;2023-05-27T04:46:30;17.00;93.70
57552;DHT22;43379;48.160;14.036;2023-05-27T04:48:56;17.10;93.80
57552;DHT22;43379;48.160;14.036;2023-05-27T04:51:22;17.10;93.60
57552;DHT22;43379;48.160;14.036;2023-05-27T04:53:48;17.20;93.70
57552;DHT22;43379;48.160;14.036;2023-05-27T04:56:14;17.30;93.60
57552;DHT22;43379;48.160;14.036;2023-05-27T04:58:43;17.30;93.50
57552;DHT22;43379;48.160;14.036;2023-05-27T05:01:09;17.40;93.20
57552;DHT22;43379;48.160;14.036;2023-05-27T05:03:46;17.40;92.80
57552;DHT22;43379;48.160;14.036;2023-05-27T05:06:28;17.50;93.00
57552;DHT22;43379;48.160;14.036;2023-05-27T05:08:54;17.50;92.40
57552;DHT22;43379;48.160;14.036;2023-05-27T05:11:20;17.50;92.80
57552;DHT22;43379;48.160;14.036;2023-05-27T05:13:45;17.50;92.60
57552;DHT22;43379;48.160;14.036;2023-05-27T05:16:11;17.60;92.60
57552;DHT22;43379;48.160;14.036;2023-05-27T05:18:37;17.70;92.50
57552;DHT22;43379;48.160;14.036;2023-05-27T05:21:02;17.80;92.50
57552;DHT22;43379;48.160;14.036;2023-05-27T05:23:28;17.90;93.00
57552;DHT22;43379;48.160;14.036;2023-05-27T05:25:54;18.00;92.60
57552;DHT22;43379;48.160;14.036;2023-05-27T05:28:23;18.10;92.80
57552;DHT22;43379;48.160;14.036;2023-05-27T05:30:49;18.30;92.40
57552;DHT22;43379;48.160;14.036;2023-05-27T05:33:15;18.30;92.00
57552;DHT22;43379;48.160;14.036;2023-05-27T05:35:41;18.50;92.20
57552;DHT22;43379;48.160;14.036;2023-05-27T05:38:06;18.70;92.10
57552;DHT22;43379;48.160;14.036;2023-05-27T05:40:32;18.80;92.10
57552;DHT22;43379;48.160;14.036;2023-05-27T05:42:58;19.00;91.90
57552;DHT22;43379;48.160;14.036;2023-05-27T05:45:23;19.20;91.70
57552;DHT22;43379;48.160;14.036;2023-05-27T05:47:49;19.40;91.40
57552;DHT22;43379;48.160;14.036;2023-05-27T05:50:15;19.70;91.00
57552;DHT22;43379;48.160;14.036;2023-05-27T05:52:41;19.80;90.80
57552;DHT22;43379;48.160;14.036;2023-05-27T05:55:07;20.00;90.80
57552;DHT22;43379;48.160;14.036;2023-05-27T05:57:32;20.10;90.00
57552;DHT22;43379;48.160;14.036;2023-05-27T05:59:58;20.20;89.30
57552;DHT22;43379;48.160;14.036;2023-05-27T06:02:24;20.30;89.00
57552;DHT22;43379;48.160;14.036;2023-05-27T06:04:51;20.30;86.60
57552;DHT22;43379;48.160;14.036;2023-05-27T06:07:16;20.40;86.20
57552;DHT22;43379;48.160;14.036;2023-05-27T06:09:42;20.30;87.00
57552;DHT22;43379;48.160;14.036;2023-05-27T06:12:08;20.50;85.90
57552;DHT22;43379;48.160;14.036;2023-05-27T06:14:33;20.60;86.20
57552;DHT22;43379;48.160;14.036;2023-05-27T06:16:59;20.50;85.20
57552;DHT22;43379;48.160;14.036;2023-05-27T06:19:25;20.70;86.40
57552;DHT22;43379;48.160;14.036;2023-05-27T06:21:51;20.80;86.80
57552;DHT22;43379;48.160;14.036;2023-05-27T06:24:16;20.90;84.70
57552;DHT22;43379;48.160;14.036;2023-05-27T06:26:44;21.10;85.70
57552;DHT22;43379;48.160;14.036;2023-05-27T06:29:10;21.30;85.80
57552;DHT22;43379;48.160;14.036;2023-05-27T06:31:35;21.50;86.10
57552;DHT22;43379;48.160;14.036;2023-05-27T06:34:01;21.80;85.40
57552;DHT22;43379;48.160;14.036;2023-05-27T06:36:27;22.10;85.40
57552;DHT22;43379;48.160;14.036;2023-05-27T06:38:54;22.40;85.40
57552;DHT22;43379;48.160;14.036;2023-05-27T06:41:19;22.40;82.20
57552;DHT22;43379;48.160;14.036;2023-05-27T06:43:45;22.60;83.70
57552;DHT22;43379;48.160;14.036;2023-05-27T06:46:11;22.70;82.20
57552;DHT22;43379;48.160;14.036;2023-05-27T06:48:36;22.80;81.40
57552;DHT22;43379;48.160;14.036;2023-05-27T06:51:02;22.70;80.10
57552;DHT22;43379;48.160;14.036;2023-05-27T06:53:28;22.70;80.90
57552;DHT22;43379;48.160;14.036;2023-05-27T06:55:54;23.00;82.30
57552;DHT22;43379;48.160;14.036;2023-05-27T06:58:20;23.20;81.60
57552;DHT22;43379;48.160;14.036;2023-05-27T07:00:46;23.30;80.80
57552;DHT22;43379;48.160;14.036;2023-05-27T07:03:12;23.50;81.30
57552;DHT22;43379;48.160;14.036;2023-05-27T07:05:37;23.60;79.80
57552;DHT22;43379;48.160;14.036;2023-05-27T07:08:05;23.70;79.70
57552;DHT22;43379;48.160;14.036;2023-05-27T07:10:31;23.80;78.50
57552;DHT22;43379;48.160;14.036;2023-05-27T07:12:57;23.90;78.10
57552;DHT22;43379;48.160;14.036;2023-05-27T07:15:22;23.60;75.40
57552;DHT22;43379;48.160;14.036;2023-05-27T07:17:48;23.40;73.20
57552;DHT22;43379;48.160;14.036;2023-05-27T07:20:13;23.30;75.20
57552;DHT22;43379;48.160;14.036;2023-05-27T07:22:39;23.40;77.30
57552;DHT22;43379;48.160;14.036;2023-05-27T07:25:05;23.50;73.90
57552;DHT22;43379;48.160;14.036;2023-05-27T07:27:31;23.40;74.10
57552;DHT22;43379;48.160;14.036;2023-05-27T07:29:56;23.50;75.70
57552;DHT22;43379;48.160;14.036;2023-05-27T07:32:22;23.60;73.70
57552;DHT22;43379;48.160;14.036;2023-05-27T07:34:48;23.80;74.10
57552;DHT22;43379;48.160;14.036;2023-05-27T07:37:14;23.70;73.70
57552;DHT22;43379;48.160;14.036;2023-05-27T07:39:39;23.90;74.50
57552;DHT22;43379;48.160;14.036;2023-05-27T07:42:05;24.00;72.10
57552;DHT22;43379;48.160;14.036;2023-05-27T07:44:31;24.00;71.80
57552;DHT22;43379;48.160;14.036;2023-05-27T07:46:57;23.90;71.60
57552;DHT22;43379;48.160;14.036;2023-05-27T07:49:24;23.80;71.90
57552;DHT22;43379;48.160;14.036;2023-05-27T07:51:50;23.90;73.50
57552;DHT22;43379;48.160;14.036;2023-05-27T07:54:16;24.20;73.90
57552;DHT22;43379;48.160;14.036;2023-05-27T07:56:42;24.60;75.40
57552;DHT22;43379;48.160;14.036;2023-05-27T07:59:07;25.00;76.20
57552;DHT22;43379;48.160;14.036;2023-05-27T08:01:33;25.20;72.50
57552;DHT22;43379;48.160;14.036;2023-05-27T08:03:59;25.20;71.20
57552;DHT22;43379;48.160;14.036;2023-05-27T08:06:25;25.30;70.60
57552;DHT22;43379;48.160;14.036;2023-05-27T08:08:50;25.20;67.80
57552;DHT22;43379;48.160;14.036;2023-05-27T08:11:16;25.20;67.70
57552;DHT22;43379;48.160;14.036;2023-05-27T08:13:42;25.10;67.90
57552;DHT22;43379;48.160;14.036;2023-05-27T08:16:07;25.00;67.60
57552;DHT22;43379;48.160;14.036;2023-05-27T08:18:36;25.10;67.70
57552;DHT22;43379;48.160;14.036;2023-05-27T08:21:02;25.20;69.00
57552;DHT22;43379;48.160;14.036;2023-05-27T08:23:28;25.10;68.90
57552;DHT22;43379;48.160;14.036;2023-05-27T08:25:53;24.90;68.10
57552;DHT22;43379;48.160;14.036;2023-05-27T08:28:19;25.20;71.50
57552;DHT22;43379;48.160;14.036;2023-05-27T08:30:45;25.00;67.90
57552;DHT22;43379;48.160;14.036;2023-05-27T08:33:10;25.00;67.90
57552;DHT22;43379;48.160;14.036;2023-05-27T08:35:36;25.10;67.70
57552;DHT22;43379;48.160;14.036;2023-05-27T08:38:02;25.20;67.50
57552;DHT22;43379;48.160;14.036;2023-05-27T08:40:27;25.10;65.00
57552;DHT22;43379;48.160;14.036;2023-05-27T08:42:53;24.70;64.50
57552;DHT22;43379;48.160;14.036;2023-05-27T08:45:19;24.70;66.60
57552;DHT22;43379;48.160;14.036;2023-05-27T08:51:14;24.90;71.00
57552;DHT22;43379;48.160;14.036;2023-05-27T08:53:49;25.10;66.20
57552;DHT22;43379;48.160;14.036;2023-05-27T09:00:16;25.30;63.50
57552;DHT22;43379;48.160;14.036;2023-05-27T09:03:44;25.10;63.70
57552;DHT22;43379;48.160;14.036;2023-05-27T09:06:39;25.00;65.50
57552;DHT22;43379;48.160;14.036;2023-05-27T09:21:06;25.70;67.70
57552;DHT22;43379;48.160;14.036;2023-05-27T09:28:14;25.90;65.00
57552;DHT22;43379;48.160;14.036;2023-05-27T09:38:07;25.90;67.40
57552;DHT22;43379;48.160;14.036;2023-05-27T09:41:07;25.80;65.30
57552;DHT22;43379;48.160;14.036;2023-05-27T09:44:24;26.00;65.50
57552;DHT22;43379;48.160;14.036;2023-05-27T09:54:05;25.50;63.30
57552;DHT22;43379;48.160;14.036;2023-05-27T10:03:30;25.10;64.30
57552;DHT22;43379;48.160;14.036;2023-05-27T10:09:58;25.30;64.10
57552;DHT22;43379;48.160;14.036;2023-05-27T10:12:57;25.30;64.70
57552;DHT22;43379;48.160;14.036;2023-05-27T10:16:04;25.10;65.20
57552;DHT22;43379;48.160;14.036;2023-05-27T10:28:09;24.40;65.70
57552;DHT22;43379;48.160;14.036;2023-05-27T10:42:20;24.40;67.40
57552;DHT22;43379;48.160;14.036;2023-05-27T10:55:49;23.90;66.00
57552;DHT22;43379;48.160;14.036;2023-05-27T11:12:15;24.40;68.00
57552;DHT22;43379;48.160;14.036;2023-05-27T11:15:20;24.40;65.80
57552;DHT22;43379;48.160;14.036;2023-05-27T11:25:07;24.60;64.60
57552;DHT22;43379;48.160;14.036;2023-05-27T11:28:37;24.50;65.70
57552;DHT22;43379;48.160;14.036;2023-05-27T11:34:17;24.30;66.10
57552;DHT22;43379;48.160;14.036;2023-05-27T11:36:49;24.30;64.90
57552;DHT22;43379;48.160;14.036;2023-05-27T11:39:15;24.30;66.00
57552;DHT22;43379;48.160;14.036;2023-05-27T11:41:52;24.40;68.20
57552;DHT22;43379;48.160;14.036;2023-05-27T11:44:18;24.50;68.60
57552;DHT22;43379;48.160;14.036;2023-05-27T11:46:47;24.40;65.40
57552;DHT22;43379;48.160;14.036;2023-05-27T11:49:18;24.40;66.70
57552;DHT22;43379;48.160;14.036;2023-05-27T11:51:49;24.40;67.40
57552;DHT22;43379;48.160;14.036;2023-05-27T11:54:18;24.40;67.30
57552;DHT22;43379;48.160;14.036;2023-05-27T11:56:45;24.40;66.00
57552;DHT22;43379;48.160;14.036;2023-05-27T11:59:10;24.40;68.50
57552;DHT22;43379;48.160;14.036;2023-05-27T12:01:36;24.40;69.10
57552;DHT22;43379;48.160;14.036;2023-05-27T12:04:02;24.30;66.70
57552;DHT22;43379;48.160;14.036;2023-05-27T12:06:29;24.10;66.70
57552;DHT22;43379;48.160;14.036;2023-05-27T12:08:54;24.20;66.80
57552;DHT22;43379;48.160;14.036;2023-05-27T12:11:20;24.10;65.30
57552;DHT22;43379;48.160;14.036;2023-05-27T12:13:47;24.00;65.20
57552;DHT22;43379;48.160;14.036;2023-05-27T12:16:13;23.80;65.40
57552;DHT22;43379;48.160;14.036;2023-05-27T12:18:38;23.70;65.30
57552;DHT22;43379;48.160;14.036;2023-05-27T12:21:06;23.70;68.00
57552;DHT22;43379;48.160;14.036;2023-05-27T12:23:33;23.80;69.10
57552;DHT22;43379;48.160;14.036;2023-05-27T12:25:59;24.00;71.90
57552;DHT22;43379;48.160;14.036;2023-05-27T12:28:25;24.20;70.30
57552;DHT22;43379;48.160;14.036;2023-05-27T12:30:51;24.30;68.90
57552;DHT22;43379;48.160;14.036;2023-05-27T12:33:17;24.10;65.80
57552;DHT22;43379;48.160;14.036;2023-05-27T12:35:42;24.00;65.50
57552;DHT22;43379;48.160;14.036;2023-05-27T12:38:08;23.80;65.50
57552;DHT22;43379;48.160;14.036;2023-05-27T12:40:34;23.80;65.70
57552;DHT22;43379;48.160;14.036;2023-05-27T12:43:01;23.80;67.40
57552;DHT22;43379;48.160;14.036;2023-05-27T12:45:28;23.80;67.60
57552;DHT22;43379;48.160;14.036;2023-05-27T12:47:54;23.90;67.40
57552;DHT22;43379;48.160;14.036;2023-05-27T12:50:20;24.00;69.50
57552;DHT22;43379;48.160;14.036;2023-05-27T12:52:48;23.90;66.90
57552;DHT22;43379;48.160;14.036;2023-05-27T12:55:15;23.70;65.60
57552;DHT22;43379;48.160;14.036;2023-05-27T12:57:47;23.60;64.80
57552;DHT22;43379;48.160;14.036;2023-05-27T13:00:14;23.60;65.20
57552;DHT22;43379;48.160;14.036;2023-05-27T13:02:41;23.60;68.40
57552;DHT22;43379;48.160;14.036;2023-05-27T13:05:08;23.70;68.00
57552;DHT22;43379;48.160;14.036;2023-05-27T13:07:34;23.70;64.40
57552;DHT22;43379;48.160;14.036;2023-05-27T13:10:05;23.70;63.10
57552;DHT22;43379;48.160;14.036;2023-05-27T13:12:32;23.60;62.50
57552;DHT22;43379;48.160;14.036;2023-05-27T13:14:59;23.60;64.60
57552;DHT22;43379;48.160;14.036;2023-05-27T13:17:25;23.60;65.60
57552;DHT22;43379;48.160;14.036;2023-05-27T13:19:51;23.50;62.40
57552;DHT22;43379;48.160;14.036;2023-05-27T13:22:17;23.50;62.80
57552;DHT22;43379;48.160;14.036;2023-05-27T13:24:43;23.40;62.50
57552;DHT22;43379;48.160;14.036;2023-05-27T13:27:09;23.30;64.40
57552;DHT22;43379;48.160;14.036;2023-05-27T13:29:35;23.30;63.90
57552;DHT22;43379;48.160;14.036;2023-05-27T13:32:01;23.30;65.20
57552;DHT22;43379;48.160;14.036;2023-05-27T13:34:27;23.30;63.90
57552;DHT22;43379;48.160;14.036;2023-05-27T13:36:54;23.30;66.30
57552;DHT22;43379;48.160;14.036;2023-05-27T13:39:19;23.40;67.70
57552;DHT22;43379;48.160;14.036;2023-05-27T13:41:45;23.40;67.50
57552;DHT22;43379;48.160;14.036;2023-05-27T13:44:11;23.40;65.60
57552;DHT22;43379;48.160;14.036;2023-05-27T13:46:38;23.20;60.00
57552;DHT22;43379;48.160;14.036;2023-05-27T13:49:03;23.10;62.10
57552;DHT22;43379;48.160;14.036;2023-05-27T13:51:30;23.10;62.90
57552;DHT22;43379;48.160;14.036;2023-05-27T13:53:56;23.20;65.70
57552;DHT22;43379;48.160;14.036;2023-05-27T13:56:22;23.20;65.90
57552;DHT22;43379;48.160;14.036;2023-05-27T13:58:49;23.20;65.30
57552;DHT22;43379;48.160;14.036;2023-05-27T14:01:14;23.30;66.10
57552;DHT22;43379;48.160;14.036;2023-05-27T14:03:40;23.40;67.30
57552;DHT22;43379;48.160;14.036;2023-05-27T14:06:06;23.40;66.60
57552;DHT22;43379;48.160;14.036;2023-05-27T14:08:33;23.40;63.80
57552;DHT22;43379;48.160;14.036;2023-05-27T14:10:58;23.50;64.40
57552;DHT22;43379;48.160;14.036;2023-05-27T14:13:24;23.40;63.80
57552;DHT22;43379;48.160;14.036;2023-05-27T14:15:53;23.40;62.80
57552;DHT22;43379;48.160;14.036;2023-05-27T14:18:19;23.30;63.60
57552;DHT22;43379;48.160;14.036;2023-05-27T14:20:44;23.30;63.60
57552;DHT22;43379;48.160;14.036;2023-05-27T14:23:11;23.20;64.70
57552;DHT22;43379;48.160;14.036;2023-05-27T14:25:38;23.20;63.30
57552;DHT22;43379;48.160;14.036;2023-05-27T14:28:04;23.30;64.70
57552;DHT22;43379;48.160;14.036;2023-05-27T14:30:32;23.30;62.90
57552;DHT22;43379;48.160;14.036;2023-05-27T14:33:03;23.20;62.90
57552;DHT22;43379;48.160;14.036;2023-05-27T14:35:35;23.30;62.90
57552;DHT22;43379;48.160;14.036;2023-05-27T14:38:01;23.20;62.40
57552;DHT22;43379;48.160;14.036;2023-05-27T14:40:27;23.30;63.80
57552;DHT22;43379;48.160;14.036;2023-05-27T14:42:53;23.30;65.00
57552;DHT22;43379;48.160;14.036;2023-05-27T14:45:18;23.40;64.70
57552;DHT22;43379;48.160;14.036;2023-05-27T14:47:46;23.30;63.60
57552;DHT22;43379;48.160;14.036;2023-05-27T14:50:12;23.20;64.70
57552;DHT22;43379;48.160;14.036;2023-05-27T14:52:37;23.10;65.70
57552;DHT22;43379;48.160;14.036;2023-05-27T14:55:04;23.10;64.50
57552;DHT22;43379;48.160;14.036;2023-05-27T14:57:30;23.00;63.90
57552;DHT22;43379;48.160;14.036;2023-05-27T15:00:03;23.10;65.80
57552;DHT22;43379;48.160;14.036;2023-05-27T15:02:31;23.10;65.90
57552;DHT22;43379;48.160;14.036;2023-05-27T15:04:56;23.10;67.10
57552;DHT22;43379;48.160;14.036;2023-05-27T15:07:22;23.10;66.80
57552;DHT22;43379;48.160;14.036;2023-05-27T15:09:48;23.20;66.30
57552;DHT22;43379;48.160;14.036;2023-05-27T15:12:14;23.20;66.00
57552;DHT22;43379;48.160;14.036;2023-05-27T15:14:40;23.20;65.90
57552;DHT22;43379;48.160;14.036;2023-05-27T15:17:06;23.20;65.90
57552;DHT22;43379;48.160;14.036;2023-05-27T15:19:36;23.10;64.70
57552;DHT22;43379;48.160;14.036;2023-05-27T15:22:02;23.10;64.20
57552;DHT22;43379;48.160;14.036;2023-05-27T15:24:28;23.00;65.30
57552;DHT22;43379;48.160;14.036;2023-05-27T15:26:53;23.00;65.40
57552;DHT22;43379;48.160;14.036;2023-05-27T15:29:19;23.00;65.30
57552;DHT22;43379;48.160;14.036;2023-05-27T15:31:47;23.00;66.00
57552;DHT22;43379;48.160;14.036;2023-05-27T15:34:12;22.90;65.60
57552;DHT22;43379;48.160;14.036;2023-05-27T15:36:38;22.90;66.10
57552;DHT22;43379;48.160;14.036;2023-05-27T15:39:04;22.90;65.60
57552;DHT22;43379;48.160;14.036;2023-05-27T15:41:31;22.90;65.90
57552;DHT22;43379;48.160;14.036;2023-05-27T15:43:57;22.90;66.40
57552;DHT22;43379;48.160;14.036;2023-05-27T15:46:23;22.90;67.20
57552;DHT22;43379;48.160;14.036;2023-05-27T15:48:49;23.00;67.70
57552;DHT22;43379;48.160;14.036;2023-05-27T15:51:14;23.00;67.40
57552;DHT22;43379;48.160;14.036;2023-05-27T15:53:40;23.10;67.70
57552;DHT22;43379;48.160;14.036;2023-05-27T15:56:06;23.00;66.80
57552;DHT22;43379;48.160;14.036;2023-05-27T15:58:31;23.00;66.50
57552;DHT22;43379;48.160;14.036;2023-05-27T16:00:57;22.90;66.60
57552;DHT22;43379;48.160;14.036;2023-05-27T16:03:23;22.90;66.90
57552;DHT22;43379;48.160;14.036;2023-05-27T16:05:48;23.00;67.10
57552;DHT22;43379;48.160;14.036;2023-05-27T16:08:14;22.90;66.50
57552;DHT22;43379;48.160;14.036;2023-05-27T16:10:53;22.90;66.50
57552;DHT22;43379;48.160;14.036;2023-05-27T16:13:19;22.90;67.10
57552;DHT22;43379;48.160;14.036;2023-05-27T16:15:46;22.90;67.40
57552;DHT22;43379;48.160;14.036;2023-05-27T16:18:12;22.90;66.90
57552;DHT22;43379;48.160;14.036;2023-05-27T16:20:38;22.90;66.50
57552;DHT22;43379;48.160;14.036;2023-05-27T16:23:05;22.90;67.40
57552;DHT22;43379;48.160;14.036;2023-05-27T16:25:31;23.00;68.10
57552;DHT22;43379;48.160;14.036;2023-05-27T16:27:56;23.00;68.00
57552;DHT22;43379;48.160;14.036;2023-05-27T16:30:22;23.00;68.30
57552;DHT22;43379;48.160;14.036;2023-05-27T16:32:48;22.90;68.00
57552;DHT22;43379;48.160;14.036;2023-05-27T16:35:15;22.90;67.70
57552;DHT22;43379;48.160;14.036;2023-05-27T16:37:41;22.90;68.50
57552;DHT22;43379;48.160;14.036;2023-05-27T16:40:07;22.80;67.90
57552;DHT22;43379;48.160;14.036;2023-05-27T16:42:33;22.70;68.20
57552;DHT22;43379;48.160;14.036;2023-05-27T16:45:01;22.70;68.90
57552;DHT22;43379;48.160;14.036;2023-05-27T16:47:28;22.70;69.10
57552;DHT22;43379;48.160;14.036;2023-05-27T16:49:53;22.70;69.00
57552;DHT22;43379;48.160;14.036;2023-05-27T16:52:19;22.70;68.80
57552;DHT22;43379;48.160;14.036;2023-05-27T16:54:45;22.70;68.50
57552;DHT22;43379;48.160;14.036;2023-05-27T16:57:11;22.70;68.40
57552;DHT22;43379;48.160;14.036;2023-05-27T16:59:37;22.70;68.20
57552;DHT22;43379;48.160;14.036;2023-05-27T17:02:03;22.60;68.50
57552;DHT22;43379;48.160;14.036;2023-05-27T17:04:29;22.60;68.90